createdAt,value
2022-10-19T00:01:17.306Z,2.42
2022-10-19T00:06:25.482Z,2.70
2022-10-19T00:08:54.934Z,4.85
2022-10-19T00:11:23.828Z,3.38
2022-10-19T00:13:51.827Z,2.67
2022-10-19T00:16:21.623Z,2.65
2022-10-19T00:18:49.788Z,4.10
2022-10-19T00:21:19.827Z,6.93
2022-10-19T00:23:49.130Z,2.45
2022-10-19T00:26:17.052Z,2.67
2022-10-19T00:28:45.659Z,3.35
2022-10-19T00:31:16.319Z,2.65
2022-10-19T00:33:47.439Z,2.78
2022-10-19T00:36:20.691Z,2.22
2022-10-19T00:38:48.952Z,2.55
2022-10-19T00:41:18.461Z,3.65
2022-10-19T00:43:55.677Z,2.10
2022-10-19T00:46:23.662Z,2.30
2022-10-19T00:48:56.201Z,2.78
2022-10-19T00:51:29.628Z,3.25
2022-10-19T00:53:58.446Z,6.53
2022-10-19T00:56:26.424Z,2.70
2022-10-19T00:58:54.527Z,3.95
2022-10-19T01:01:25.395Z,4.10
2022-10-19T01:03:54.683Z,2.35
2022-10-19T01:06:25.307Z,2.90
2022-10-19T01:08:53.303Z,2.42
2022-10-19T01:11:32.556Z,4.47
2022-10-19T01:14:14.478Z,2.38
2022-10-19T01:16:51.140Z,3.08
2022-10-19T01:19:54.085Z,5.00
2022-10-19T01:22:34.927Z,4.25
2022-10-19T01:25:13.824Z,4.45
2022-10-19T01:28:14.485Z,4.60
2022-10-19T01:30:52.937Z,4.30
2022-10-19T01:33:32.782Z,3.75
2022-10-19T01:36:10.432Z,9.98
2022-10-19T01:38:45.937Z,4.90
2022-10-19T01:41:17.842Z,3.80
2022-10-19T01:43:52.818Z,5.00
2022-10-19T01:46:28.322Z,7.10
2022-10-19T01:49:01.252Z,4.32
2022-10-19T01:51:33.617Z,5.20
2022-10-19T01:54:07.240Z,4.85
2022-10-19T01:56:36.766Z,5.80
2022-10-19T01:59:07.229Z,5.03
2022-10-19T02:01:39.709Z,8.32
2022-10-19T02:04:08.547Z,6.07
2022-10-19T02:06:36.891Z,7.80
2022-10-19T02:09:05.098Z,6.82
2022-10-19T02:11:34.115Z,6.95
2022-10-19T02:14:06.262Z,6.32
2022-10-19T02:16:41.095Z,6.05
2022-10-19T02:19:11.033Z,8.15
2022-10-19T02:21:39.063Z,7.10
2022-10-19T02:24:07.209Z,9.32
2022-10-19T02:26:36.663Z,5.18
2022-10-19T02:29:05.767Z,8.90
2022-10-19T02:31:33.873Z,8.43
2022-10-19T02:42:51.926Z,22.95
2022-10-19T02:45:24.935Z,10.43
2022-10-19T02:47:56.922Z,12.43
2022-10-19T02:50:25.591Z,9.50
2022-10-19T02:52:53.533Z,11.93
2022-10-19T02:55:21.614Z,14.50
2022-10-19T02:57:50.894Z,11.82
2022-10-19T03:08:57.493Z,12.32
2022-10-19T03:11:25.463Z,13.15
2022-10-19T03:13:54.705Z,11.98
2022-10-19T03:16:22.620Z,10.57
2022-10-19T03:18:50.928Z,11.05
2022-10-19T03:21:19.807Z,8.30
2022-10-19T03:23:47.728Z,9.18
2022-10-19T03:26:17.532Z,9.55
2022-10-19T03:28:45.913Z,9.63
2022-10-19T03:31:15.266Z,7.00
2022-10-19T03:33:45.236Z,7.40
2022-10-19T03:36:18.525Z,8.32
2022-10-19T03:38:46.540Z,6.85
2022-10-19T03:41:14.628Z,5.40
2022-10-19T03:43:42.554Z,8.98
2022-10-19T03:46:10.840Z,5.30
2022-10-19T03:48:40.152Z,6.38
2022-10-19T03:51:10.864Z,9.93
2022-10-19T03:53:40.580Z,7.47
2022-10-19T03:56:11.839Z,5.70
2022-10-19T03:58:41.003Z,7.95
2022-10-19T04:01:12.098Z,7.35
2022-10-19T04:03:41.728Z,8.15
2022-10-19T04:06:12.058Z,8.32
2022-10-19T04:08:40.111Z,14.15
2022-10-19T04:11:10.212Z,7.03
2022-10-19T04:13:38.288Z,11.95
2022-10-19T04:16:06.864Z,7.85
2022-10-19T04:18:35.068Z,7.90
2022-10-19T04:21:06.367Z,7.05
2022-10-19T04:23:36.286Z,9.05
2022-10-19T04:26:06.647Z,9.13
2022-10-19T04:28:35.129Z,7.05
2022-10-19T04:31:03.743Z,9.57
2022-10-19T04:33:31.965Z,10.27
2022-10-19T04:36:00.325Z,10.60
2022-10-19T04:38:30.423Z,10.10
2022-10-19T04:41:03.066Z,7.63
2022-10-19T04:43:31.050Z,9.50
2022-10-19T04:46:02.917Z,8.18
2022-10-19T04:48:30.878Z,6.60
2022-10-19T04:50:58.914Z,11.60
2022-10-19T04:53:26.902Z,9.82
2022-10-19T04:55:56.205Z,9.32
2022-10-19T04:58:24.670Z,11.60
2022-10-19T05:00:53.033Z,6.97
2022-10-19T05:03:21.130Z,8.55
2022-10-19T05:05:49.082Z,12.68
2022-10-19T05:08:17.371Z,9.23
2022-10-19T05:10:47.625Z,7.32
2022-10-19T05:13:17.233Z,8.18
2022-10-19T05:15:45.161Z,8.75
2022-10-19T05:18:13.132Z,13.40
2022-10-19T05:20:41.056Z,10.60
2022-10-19T05:23:09.021Z,12.85
2022-10-19T05:25:36.959Z,9.40
2022-10-19T05:28:04.913Z,10.57
2022-10-19T05:30:34.284Z,11.63
2022-10-19T05:33:02.248Z,5.82
2022-10-19T05:35:30.158Z,9.27
2022-10-19T05:38:00.875Z,13.00
2022-10-19T05:40:28.797Z,6.90
2022-10-19T05:42:56.715Z,11.93
2022-10-19T05:45:24.636Z,9.23
2022-10-19T05:47:53.887Z,8.48
2022-10-19T05:50:21.876Z,10.27
2022-10-19T05:52:49.805Z,6.93
2022-10-19T05:55:17.909Z,9.95
2022-10-19T05:57:45.841Z,8.20
2022-10-19T06:00:14.453Z,6.40
2022-10-19T06:02:42.610Z,7.72
2022-10-19T06:05:11.993Z,6.82
2022-10-19T06:07:39.952Z,8.50
2022-10-19T06:10:09.923Z,12.73
2022-10-19T06:12:38.351Z,8.30
2022-10-19T06:15:06.786Z,7.57
2022-10-19T06:17:35.150Z,9.60
2022-10-19T06:20:03.351Z,7.03
2022-10-19T06:22:32.640Z,6.93
2022-10-19T06:25:00.562Z,7.18
2022-10-19T06:27:29.077Z,8.20
2022-10-19T06:29:59.229Z,8.13
2022-10-19T06:32:28.409Z,8.60
2022-10-19T06:34:56.766Z,7.07
2022-10-19T06:37:24.837Z,11.77
2022-10-19T06:39:54.115Z,8.48
2022-10-19T06:42:22.065Z,11.57
2022-10-19T06:44:50.007Z,10.68
2022-10-19T06:47:17.983Z,9.23
2022-10-19T06:49:46.087Z,10.65
2022-10-19T06:52:14.018Z,10.38
2022-10-19T06:54:42.709Z,10.20
2022-10-19T06:57:12.027Z,6.13
2022-10-19T06:59:40.127Z,12.32
2022-10-19T07:02:08.142Z,12.70
2022-10-19T07:04:36.283Z,16.15
2022-10-19T07:07:04.247Z,22.48
2022-10-19T07:09:32.321Z,17.80
2022-10-19T07:12:00.389Z,15.63
2022-10-19T07:14:29.692Z,12.30
2022-10-19T07:16:57.710Z,9.25
2022-10-19T07:19:27.763Z,13.05
2022-10-19T07:21:55.647Z,10.20
2022-10-19T07:24:24.277Z,10.07
2022-10-19T07:26:52.235Z,12.95
2022-10-19T07:29:20.194Z,25.13
2022-10-19T07:31:58.359Z,12.45
2022-10-19T07:34:28.937Z,15.65
2022-10-19T07:36:59.361Z,10.40
2022-10-19T07:39:28.032Z,11.48
2022-10-19T07:41:55.980Z,12.48
2022-10-19T07:44:27.143Z,8.80
2022-10-19T07:46:58.557Z,11.90
2022-10-19T07:49:26.671Z,12.57
2022-10-19T07:51:56.009Z,18.42
2022-10-19T07:54:24.561Z,14.38
2022-10-19T07:56:52.485Z,14.18
2022-10-19T07:59:20.790Z,11.73
2022-10-19T08:01:48.957Z,14.07
2022-10-19T08:07:07.040Z,10.98
2022-10-19T08:10:03.196Z,15.85
2022-10-19T08:12:22.905Z,17.30
2022-10-19T08:14:50.942Z,9.85
2022-10-19T08:17:18.896Z,10.32
2022-10-19T08:19:48.285Z,9.70
2022-10-19T08:22:16.259Z,9.98
2022-10-19T08:24:44.222Z,3.47
2022-10-19T08:27:12.197Z,10.95
2022-10-19T08:29:40.139Z,9.50
2022-10-19T08:32:08.035Z,6.72
2022-10-19T08:34:38.702Z,8.18
2022-10-19T08:37:19.780Z,10.38
2022-10-19T08:39:56.032Z,13.38
2022-10-19T08:42:29.384Z,9.95
2022-10-19T08:45:17.567Z,10.75
2022-10-19T08:48:08.470Z,8.90
2022-10-19T08:50:39.264Z,7.57
2022-10-19T08:53:13.744Z,6.47
2022-10-19T08:55:53.957Z,7.35
2022-10-19T08:58:38.680Z,11.35
2022-10-19T09:01:10.948Z,2.63
2022-10-19T09:03:55.799Z,16.85
2022-10-19T09:06:30.130Z,5.68
2022-10-19T09:09:00.073Z,6.28
2022-10-19T09:11:30.799Z,4.72
2022-10-19T09:14:07.423Z,5.18
2022-10-19T09:16:35.898Z,2.53
2022-10-19T09:19:04.421Z,1.73
2022-10-19T09:21:44.603Z,7.28
2022-10-19T09:24:29.672Z,1.90
2022-10-19T09:27:02.020Z,6.60
2022-10-19T09:29:37.954Z,11.95
2022-10-19T09:32:16.529Z,6.10
2022-10-19T09:34:48.192Z,3.78
2022-10-19T09:37:23.470Z,4.55
2022-10-19T09:39:55.744Z,5.10
2022-10-19T09:42:29.016Z,8.13
2022-10-19T09:44:59.226Z,5.60
2022-10-19T09:47:36.168Z,5.47
2022-10-19T09:50:15.203Z,6.03
2022-10-19T09:52:44.400Z,8.43
2022-10-19T09:55:25.866Z,4.90
2022-10-19T09:58:01.820Z,3.38
2022-10-19T10:00:38.681Z,0.73
2022-10-19T10:03:07.545Z,4.78
2022-10-19T10:05:38.094Z,2.55
2022-10-19T10:08:13.948Z,1.88
2022-10-19T10:10:47.116Z,3.70
2022-10-19T10:13:18.912Z,1.95
2022-10-19T10:15:52.039Z,2.05
2022-10-19T10:18:20.296Z,6.03
2022-10-19T10:21:03.884Z,5.30
2022-10-19T10:23:36.416Z,5.28
2022-10-19T10:26:13.844Z,1.85
2022-10-19T10:28:48.682Z,1.42
2022-10-19T10:31:20.480Z,2.83
2022-10-19T10:33:55.943Z,1.95
2022-10-19T10:36:27.445Z,0.38
2022-10-19T10:41:45.531Z,2.47
2022-10-19T10:44:20.730Z,1.73
2022-10-19T10:46:53.473Z,1.58
2022-10-19T10:49:25.405Z,0.90
2022-10-19T10:51:56.931Z,3.17
2022-10-19T10:54:27.109Z,1.17
2022-10-19T10:57:06.923Z,0.47
2022-10-19T10:59:43.105Z,0.90
2022-10-19T11:05:00.175Z,2.28
2022-10-19T11:07:31.059Z,3.20
2022-10-19T11:10:02.608Z,3.65
2022-10-19T11:12:38.284Z,2.72
2022-10-19T11:15:17.293Z,4.53
2022-10-19T11:17:56.326Z,4.60
2022-10-19T11:20:30.253Z,1.50
2022-10-19T11:23:14.591Z,2.50
2022-10-19T11:25:52.506Z,2.00
2022-10-19T11:28:34.931Z,6.65
2022-10-19T11:31:10.319Z,2.00
2022-10-19T11:33:49.496Z,4.78
2022-10-19T11:36:35.643Z,2.97
2022-10-19T11:39:20.067Z,5.13
2022-10-19T11:41:56.357Z,3.05
2022-10-19T11:44:43.847Z,1.50
2022-10-19T11:47:34.850Z,1.40
2022-10-19T11:50:19.726Z,2.60
2022-10-19T11:53:00.036Z,5.55
2022-10-19T11:55:38.902Z,1.77
2022-10-19T11:58:21.597Z,2.00
2022-10-19T12:00:57.828Z,1.30
2022-10-19T12:03:50.816Z,2.53
2022-10-19T12:06:25.188Z,1.88
2022-10-19T12:09:13.721Z,1.88
2022-10-19T12:11:53.440Z,1.85
2022-10-19T12:14:25.273Z,4.68
2022-10-19T12:16:58.716Z,0.63
2022-10-19T12:19:29.871Z,2.50
2022-10-19T12:22:03.142Z,0.85
2022-10-19T12:24:34.422Z,1.70
2022-10-19T12:27:03.058Z,2.22
2022-10-19T12:29:34.976Z,4.35
2022-10-19T12:32:06.853Z,5.03
2022-10-19T12:34:41.687Z,4.70
2022-10-19T12:37:18.722Z,1.65
2022-10-19T12:39:54.540Z,5.40
2022-10-19T12:42:28.546Z,6.95
2022-10-19T12:45:09.215Z,2.85
2022-10-19T12:47:41.955Z,2.03
2022-10-19T12:50:09.981Z,2.58
2022-10-19T12:52:44.436Z,2.58
2022-10-19T12:55:24.536Z,3.58
2022-10-19T12:58:01.073Z,2.03
2022-10-19T13:00:32.537Z,5.53
2022-10-19T13:03:06.257Z,1.85
2022-10-19T13:05:35.662Z,3.47
2022-10-19T13:08:07.974Z,4.00
2022-10-19T13:10:40.263Z,2.63
2022-10-19T13:13:46.578Z,6.78
2022-10-19T13:16:56.493Z,4.25
2022-10-19T13:19:26.056Z,4.90
2022-10-19T13:22:29.741Z,5.20
2022-10-19T13:25:23.491Z,3.15
2022-10-19T13:27:55.263Z,2.50
2022-10-19T13:31:06.947Z,1.95
2022-10-19T13:33:52.340Z,6.15
2022-10-19T13:36:22.715Z,3.72
2022-10-19T13:39:08.537Z,4.20
2022-10-19T13:41:51.647Z,3.00
2022-10-19T13:44:28.890Z,6.38
2022-10-19T13:47:21.586Z,7.43
2022-10-19T13:50:11.828Z,3.97
2022-10-19T13:53:06.943Z,5.65
2022-10-19T13:55:54.800Z,5.32
2022-10-19T13:58:54.053Z,5.15
2022-10-19T14:01:33.076Z,6.15
2022-10-19T14:04:18.624Z,3.28
2022-10-19T14:06:52.069Z,7.55
2022-10-19T14:09:34.796Z,4.38
2022-10-19T14:12:08.799Z,4.05
2022-10-19T14:17:20.291Z,6.68
2022-10-19T14:19:50.495Z,6.55
2022-10-19T14:22:21.086Z,5.15
2022-10-19T14:24:50.407Z,6.38
2022-10-19T14:27:22.239Z,5.72
2022-10-19T14:29:52.586Z,4.38
2022-10-19T14:32:24.559Z,3.42
2022-10-19T14:34:53.069Z,2.15
2022-10-19T14:37:24.027Z,2.40
2022-10-19T14:40:06.977Z,4.55
2022-10-19T14:42:46.000Z,3.72
2022-10-19T14:45:18.071Z,3.97
2022-10-19T14:47:54.377Z,5.50
2022-10-19T14:50:25.650Z,3.95
2022-10-19T14:52:59.394Z,5.35
2022-10-19T14:55:35.387Z,6.80
2022-10-19T14:58:10.496Z,5.18
2022-10-19T15:00:38.977Z,4.43
2022-10-19T15:03:09.157Z,5.60
2022-10-19T15:05:41.637Z,3.70
2022-10-19T15:08:11.760Z,4.28
2022-10-19T15:10:45.640Z,4.03
2022-10-19T15:13:23.622Z,8.77
2022-10-19T15:15:53.215Z,6.18
2022-10-19T15:18:43.844Z,7.03
2022-10-19T15:21:16.016Z,2.22
2022-10-19T15:23:45.887Z,3.50
2022-10-19T15:26:21.762Z,2.92
2022-10-19T15:28:50.607Z,3.60
2022-10-19T15:31:20.919Z,2.90
2022-10-19T15:33:51.412Z,3.00
2022-10-19T15:36:21.473Z,3.35
2022-10-19T15:39:11.445Z,7.13
2022-10-19T15:41:49.312Z,4.47
2022-10-19T15:44:33.822Z,3.17
2022-10-19T15:47:22.110Z,3.65
2022-10-19T15:49:55.547Z,7.20
2022-10-19T15:52:25.019Z,2.83
2022-10-19T15:54:54.718Z,6.18
2022-10-19T15:57:27.989Z,4.65
2022-10-19T15:59:56.620Z,11.63
2022-10-19T16:02:26.222Z,18.08
2022-10-19T16:04:54.569Z,24.38
2022-10-19T16:07:27.022Z,5.32
2022-10-19T16:09:55.603Z,10.40
2022-10-19T16:12:26.251Z,3.13
2022-10-19T16:14:54.342Z,2.75
2022-10-19T16:17:22.575Z,15.85
2022-10-19T16:19:50.679Z,7.13
2022-10-19T16:22:18.986Z,7.88
2022-10-19T16:24:46.931Z,7.55
2022-10-19T16:27:16.203Z,7.72
2022-10-19T16:29:45.866Z,8.30
2022-10-19T16:32:13.873Z,12.60
2022-10-19T16:34:42.051Z,5.78
2022-10-19T16:37:12.660Z,4.28
2022-10-19T16:39:40.577Z,8.18
2022-10-19T16:42:08.552Z,30.38
2022-10-19T16:44:36.495Z,8.57
2022-10-19T16:47:06.042Z,18.75
2022-10-19T16:49:34.340Z,6.78
2022-10-19T16:52:02.535Z,9.70
2022-10-19T16:54:30.694Z,5.03
2022-10-19T16:56:58.597Z,4.93
2022-10-19T16:59:26.536Z,2.88
2022-10-19T17:01:54.724Z,10.18
2022-10-19T17:04:24.088Z,11.35
2022-10-19T17:06:51.999Z,10.70
2022-10-19T17:09:41.673Z,6.55
2022-10-19T17:12:09.996Z,6.05
2022-10-19T17:14:39.575Z,4.20
2022-10-19T17:17:17.076Z,9.52
2022-10-19T17:19:46.757Z,3.55
2022-10-19T17:22:14.659Z,3.25
2022-10-19T17:24:42.598Z,6.55
2022-10-19T17:27:10.504Z,7.60
2022-10-19T17:29:38.636Z,8.00
2022-10-19T17:32:06.919Z,13.60
2022-10-19T17:34:34.909Z,11.77
2022-10-19T17:37:04.275Z,6.88
2022-10-19T17:39:32.197Z,5.97
2022-10-19T17:42:01.937Z,8.25
2022-10-19T17:44:31.471Z,6.72
2022-10-19T17:47:00.678Z,6.80
2022-10-19T17:49:29.669Z,5.53
2022-10-19T17:51:57.630Z,6.05
2022-10-19T17:54:26.973Z,4.60
2022-10-19T17:56:55.216Z,5.03
2022-10-19T17:59:34.796Z,5.82
2022-10-19T18:02:04.045Z,4.25
2022-10-19T18:04:32.022Z,4.57
2022-10-19T18:07:00.100Z,5.50
2022-10-19T18:09:29.406Z,4.68
2022-10-19T18:11:57.373Z,4.85
2022-10-19T18:14:25.318Z,7.38
2022-10-19T18:16:53.346Z,6.35
2022-10-19T18:19:21.309Z,6.68
2022-10-19T18:21:49.697Z,4.70
2022-10-19T18:24:20.239Z,7.85
2022-10-19T18:26:50.800Z,7.40
2022-10-19T18:29:20.901Z,6.13
2022-10-19T18:31:51.561Z,5.78
2022-10-19T18:34:21.532Z,6.05
2022-10-19T18:36:50.022Z,7.50
2022-10-19T18:39:18.603Z,9.85
2022-10-19T18:41:48.183Z,8.90
2022-10-19T18:44:20.862Z,5.70
2022-10-19T18:46:51.667Z,5.80
2022-10-19T18:49:19.713Z,7.47
2022-10-19T18:51:52.301Z,5.95
2022-10-19T18:54:23.276Z,7.50
2022-10-19T18:56:51.238Z,7.25
2022-10-19T18:59:21.020Z,6.25
2022-10-19T19:01:49.040Z,4.88
2022-10-19T19:04:16.951Z,5.90
2022-10-19T19:06:44.858Z,4.43
2022-10-19T19:09:13.760Z,5.55
2022-10-19T19:11:42.096Z,5.18
2022-10-19T19:14:14.697Z,6.70
2022-10-19T19:16:46.757Z,8.93
2022-10-19T19:19:16.325Z,6.65
2022-10-19T19:21:45.111Z,6.93
2022-10-19T19:24:15.140Z,7.78
2022-10-19T19:26:46.672Z,6.75
2022-10-19T19:29:14.742Z,6.90
2022-10-19T19:31:42.763Z,8.48
2022-10-19T19:34:12.431Z,8.98
2022-10-19T19:36:46.690Z,9.93
2022-10-19T19:39:15.395Z,11.75
2022-10-19T19:41:43.293Z,9.38
2022-10-19T19:44:11.229Z,9.55
2022-10-19T19:46:39.952Z,5.40
2022-10-19T19:49:07.867Z,6.57
2022-10-19T19:51:37.234Z,8.65
2022-10-19T19:54:06.678Z,7.40
2022-10-19T19:56:34.684Z,6.97
2022-10-19T19:59:04.326Z,12.95
2022-10-19T20:01:33.130Z,10.27
2022-10-19T20:06:40.475Z,10.65
2022-10-19T20:09:10.587Z,8.02
2022-10-19T20:11:42.461Z,7.80
2022-10-19T20:14:13.198Z,6.95
2022-10-19T20:16:41.388Z,7.82
2022-10-19T20:19:11.222Z,6.22
2022-10-19T20:21:43.428Z,6.60
2022-10-19T20:24:11.703Z,6.00
2022-10-19T20:26:39.751Z,7.38
2022-10-19T20:29:07.911Z,9.45
2022-10-19T20:31:39.475Z,13.20
2022-10-19T20:34:10.657Z,10.07
2022-10-19T20:36:38.775Z,12.07
2022-10-19T20:39:08.456Z,9.32
2022-10-19T20:41:38.640Z,10.63
2022-10-19T20:44:06.829Z,6.50
2022-10-19T20:46:37.439Z,11.75
2022-10-19T20:49:09.421Z,10.93
2022-10-19T20:51:40.913Z,12.50
2022-10-19T20:54:13.264Z,20.95
2022-10-19T20:56:42.358Z,11.88
2022-10-19T20:59:15.315Z,21.77
2022-10-19T21:01:44.447Z,13.18
2022-10-19T21:04:14.594Z,16.50
2022-10-19T21:06:44.847Z,16.00
2022-10-19T21:09:15.933Z,13.18
2022-10-19T21:11:45.790Z,10.45
2022-10-19T21:14:15.815Z,21.75
2022-10-19T21:16:43.807Z,14.52
2022-10-19T21:19:14.197Z,16.00
2022-10-19T21:21:44.522Z,8.88
2022-10-19T21:24:15.973Z,11.40
2022-10-19T21:26:45.381Z,8.27
2022-10-19T21:29:15.376Z,12.15
2022-10-19T21:31:47.834Z,12.25
2022-10-19T21:34:19.749Z,9.10
2022-10-19T21:36:48.170Z,12.27
2022-10-19T21:39:17.667Z,12.63
2022-10-19T21:41:46.019Z,8.35
2022-10-19T21:44:14.868Z,15.55
2022-10-19T21:46:43.875Z,11.30
2022-10-19T21:49:12.812Z,6.15
2022-10-19T21:51:45.071Z,10.95
2022-10-19T21:54:15.120Z,9.70
2022-10-19T21:56:45.803Z,5.75
2022-10-19T21:59:16.126Z,8.38
2022-10-19T22:01:44.309Z,23.08
2022-10-19T22:04:14.732Z,16.77
2022-10-19T22:06:44.246Z,11.27
2022-10-19T22:09:18.526Z,8.38
2022-10-19T22:11:47.891Z,12.43
2022-10-19T22:14:17.234Z,14.77
2022-10-19T22:16:45.770Z,7.57
2022-10-19T22:19:14.287Z,11.18
2022-10-19T22:21:42.707Z,9.18
2022-10-19T22:24:13.965Z,5.68
2022-10-19T22:26:44.393Z,11.15
2022-10-19T22:29:14.142Z,8.00
2022-10-19T22:31:42.486Z,6.57
2022-10-19T22:34:12.582Z,6.78
2022-10-19T22:36:40.519Z,8.85
2022-10-19T22:39:09.007Z,8.85
2022-10-19T22:41:39.503Z,9.25
2022-10-19T22:45:02.759Z,9.15
2022-10-19T22:48:44.344Z,14.00
2022-10-19T22:52:26.215Z,6.05
2022-10-19T22:55:14.247Z,7.47
2022-10-19T22:57:42.161Z,10.02
2022-10-19T23:00:11.346Z,5.07
2022-10-19T23:02:39.237Z,4.97
2022-10-19T23:05:07.559Z,5.38
2022-10-19T23:07:37.568Z,3.78
2022-10-19T23:10:06.601Z,4.25
2022-10-19T23:12:35.962Z,3.45
2022-10-19T23:15:03.973Z,10.05
2022-10-19T23:17:31.896Z,6.38
2022-10-19T23:19:59.807Z,9.93
2022-10-19T23:22:27.720Z,3.72
2022-10-19T23:24:55.605Z,4.72
2022-10-19T23:27:23.562Z,6.90
2022-10-19T23:29:52.817Z,34.85
2022-10-19T23:32:20.768Z,23.60
2022-10-19T23:34:48.734Z,37.63
2022-10-19T23:37:16.670Z,28.88
2022-10-19T23:39:44.615Z,4.95
2022-10-19T23:42:12.550Z,5.35
2022-10-19T23:44:40.544Z,4.38
2022-10-19T23:47:09.803Z,3.55
2022-10-19T23:49:37.683Z,24.85
2022-10-19T23:52:05.933Z,14.00
2022-10-19T23:54:33.943Z,4.55
2022-10-19T23:57:01.988Z,3.42
2022-10-19T23:59:29.941Z,3.22
